Centre De Secours Principal Heliport

FR-0031 · Yonne, Bourgogne-Franche-Comté, Francja

Historia METAR FR-0031 · Centre De Secours Principal Heliport

Poniżej widzisz METAR-y z ostatnich kilku dni. Wybierz rok, aby przeglądać starsze METAR-y, począwszy od roku 2007.

13 czerwca 2024

Czas Kod Pogoda Temp. Widoczność Sufit Wiatr METAR/SPECI
05:30
V
5 °C 10 km+ - Var Var 1 kt METAR LFQB 130330Z AUTO VRB01KT CAVOK 05/04 Q1019
05:00
V
5 °C 10 km+ - 360° 360° 0 kt METAR LFQB 130300Z AUTO 00000KT CAVOK 05/04 Q1019
04:30
V
6 °C 10 km+ - 080° 080° 2 kt METAR LFQB 130230Z AUTO 08002KT CAVOK 06/05 Q1020
04:00
V
5 °C 10 km+ - 140° 140° 2 kt METAR LFQB 130200Z AUTO 14002KT CAVOK 05/05 Q1020
03:30
V
5 °C 10 km+ - 360° 360° 0 kt METAR LFQB 130130Z AUTO 00000KT CAVOK 05/04 Q1020
03:00
V
6 °C 10 km+ - 360° 360° 0 kt METAR LFQB 130100Z AUTO 00000KT CAVOK 06/05 Q1020
02:30
V
7 °C 10 km+ - Var Var 1 kt METAR LFQB 130030Z AUTO VRB01KT CAVOK 07/06 Q1020
02:00
V
7 °C 10 km+ - 200° 200° 3 kt METAR LFQB 130000Z AUTO 20003KT CAVOK 07/06 Q1020
01:30
V
7 °C 10 km+ - 270° 270° 2 kt METAR LFQB 122330Z AUTO 27002KT CAVOK 07/06 Q1020
01:00
V
9 °C 10 km+ - Var Var 1 kt METAR LFQB 122300Z AUTO VRB01KT CAVOK 09/07 Q1020
00:30
V
9 °C 10 km+ - Var Var 1 kt METAR LFQB 122230Z AUTO VRB01KT CAVOK 09/08 Q1020
00:00
V
10 °C 10 km+ - 300° 300° 4 kt METAR LFQB 122200Z AUTO 30004KT CAVOK 10/08 Q1020

12 czerwca 2024

Czas Kod Pogoda Temp. Widoczność Sufit Wiatr METAR/SPECI
23:30
V
11 °C 10 km+ - 300° 300° 5 kt METAR LFQB 122130Z AUTO 30005KT CAVOK 11/08 Q1020
23:00
V
12 °C 10 km+ - 300° 300° 4 kt METAR LFQB 122100Z AUTO 30004KT CAVOK 12/09 Q1020
22:30
V
13 °C 10 km+ - 310° 310° 4 kt METAR LFQB 122030Z AUTO 31004KT CAVOK 13/09 Q1020
22:00
V
14 °C 10 km+ - 320° 320° 3 kt METAR LFQB 122000Z AUTO 32003KT CAVOK 14/09 Q1020
21:30
V
15 °C 10 km+ - 330° 330° 5 kt METAR LFQB 121930Z AUTO 33005KT 290V360 CAVOK 15/09 Q1020
21:00
V
16 °C 10 km+ - 360° 360° 4 kt METAR LFQB 121900Z AUTO 36004KT 340V040 CAVOK 16/07 Q1019
20:30
V
16 °C 10 km+ - 350° 350° 4 kt METAR LFQB 121830Z AUTO 35004KT CAVOK 16/07 Q1019
20:00
V
17 °C 10 km+ - 340° 340° 5 kt METAR LFQB 121800Z AUTO 34005KT CAVOK 17/07 Q1019
19:30
V
17 °C 10 km+ - 340° 340° 5 kt METAR LFQB 121730Z AUTO 34005KT CAVOK 17/06 Q1019
19:00
V
17 °C 10 km+ - 330° 330° 6 kt METAR LFQB 121700Z AUTO 33006KT CAVOK 17/06 Q1019
18:30
V
18 °C 10 km+ - 340° 340° 6 kt METAR LFQB 121630Z AUTO 34006KT CAVOK 18/06 Q1019
18:00
V
18 °C 10 km+ - 330° 330° 6 kt METAR LFQB 121600Z AUTO 33006KT 290V360 CAVOK 18/05 Q1019
17:30
V
18 °C 10 km+ - 350° 350° 8 kt METAR LFQB 121530Z AUTO 35008KT CAVOK 18/05 Q1019
17:00
V
18 °C 10 km+ - 330° 330° 6 kt METAR LFQB 121500Z AUTO 33006KT 220V020 CAVOK 18/05 Q1019
16:30
V
18 °C 10 km+ - 330° 330° 6 kt METAR LFQB 121430Z AUTO 33006KT 290V010 CAVOK 18/06 Q1020
16:00
V
18 °C 10 km+ - 320° 320° 10 kt METAR LFQB 121400Z AUTO 32010KT CAVOK 18/06 Q1020
15:30
V
17 °C 10 km+ - 360° 360° 8 kt METAR LFQB 121330Z AUTO 36008KT 330V030 CAVOK 17/06 Q1020
15:00
V
18 °C 10 km+ - 350° 350° 7 kt METAR LFQB 121300Z AUTO 35007KT 300V030 CAVOK 18/06 Q1020
14:30
V
17 °C 10 km+ - 010° 010° 5 kt METAR LFQB 121230Z AUTO 01005KT 310V080 CAVOK 17/04 Q1020
14:00
V
18 °C 10 km+ - Var Var 6 kt METAR LFQB 121200Z AUTO VRB06KT CAVOK 18/06 Q1020
13:30
V
18 °C 10 km+ - Var Var 5 kt METAR LFQB 121130Z AUTO VRB05KT 9999 FEW045 18/06 Q1020
13:00
V
17 °C 10 km+ 4.500 ft 340° 340° 7 kt METAR LFQB 121100Z AUTO 34007KT 300V030 9999 BKN045 BKN054 17/06 Q1020
12:30
V
16 °C 10 km+ - 360° 360° 5 kt METAR LFQB 121030Z AUTO 36005KT 260V060 9999 SCT040 SCT050 16/07 Q1020
12:00
V
16 °C 10 km+ - 020° 020° 5 kt METAR LFQB 121000Z AUTO 02005KT 340V070 9999 FEW041 16/06 Q1021
11:30
V
15 °C 10 km+ - 360° 360° 6 kt METAR LFQB 120930Z AUTO 36006KT 320V070 9999 SCT036 SCT043 15/06 Q1021
11:00
V
15 °C 10 km+ 3.100 ft 050° 050° 5 kt METAR LFQB 120900Z AUTO 05005KT 360V120 9999 BKN031 15/06 Q1021
10:30
V
15 °C 10 km+ - Var Var 6 kt METAR LFQB 120830Z AUTO VRB06KT 9999 SCT029 15/07 Q1021
10:00
V
14 °C 10 km+ - 010° 010° 4 kt METAR LFQB 120800Z AUTO 01004KT 310V070 9999 FEW027 14/08 Q1021
09:30
V
13 °C 10 km+ - 340° 340° 4 kt METAR LFQB 120730Z AUTO 34004KT 310V020 CAVOK 13/08 Q1021
09:00
V
12 °C 10 km+ - 350° 350° 4 kt METAR LFQB 120700Z AUTO 35004KT 270V030 CAVOK 12/08 Q1021
08:30
V
11 °C 10 km+ - 320° 320° 5 kt METAR LFQB 120630Z AUTO 32005KT CAVOK 11/09 Q1021
08:00
V
9 °C 10 km+ - 320° 320° 5 kt METAR LFQB 120600Z AUTO 32005KT CAVOK 09/08 Q1020
07:30
V
9 °C 10 km+ - 320° 320° 6 kt METAR LFQB 120530Z AUTO 32006KT CAVOK 09/08 Q1020
07:00
V
7 °C 10 km+ - 310° 310° 4 kt METAR LFQB 120500Z AUTO 31004KT CAVOK 07/07 Q1020
06:30
V
5 °C 10 km+ - 320° 320° 5 kt METAR LFQB 120430Z AUTO 32005KT CAVOK 05/05 Q1020
06:00
V
5 °C 10 km+ - 330° 330° 6 kt METAR LFQB 120400Z AUTO 33006KT CAVOK 05/04 Q1020
05:30
V
6 °C 10 km+ - 320° 320° 4 kt METAR LFQB 120330Z AUTO 32004KT CAVOK 06/05 Q1020
05:00
V
5 °C 10 km+ - 320° 320° 5 kt METAR LFQB 120300Z AUTO 32005KT CAVOK 05/05 Q1020
04:30
V
5 °C 10 km+ - 320° 320° 5 kt METAR LFQB 120230Z AUTO 32005KT CAVOK 05/04 Q1020
04:00
V
5 °C 10 km+ - 340° 340° 3 kt METAR LFQB 120200Z AUTO 34003KT CAVOK 05/05 Q1020
03:30
V
6 °C 10 km+ - 330° 330° 4 kt METAR LFQB 120130Z AUTO 33004KT CAVOK 06/05 Q1020
03:00
V
6 °C 10 km+ - 340° 340° 3 kt METAR LFQB 120100Z AUTO 34003KT CAVOK 06/05 Q1020
02:30
V
6 °C 10 km+ - Var Var 1 kt METAR LFQB 120030Z AUTO VRB01KT CAVOK 06/05 Q1020
02:00
V
7 °C 10 km+ - 300° 300° 3 kt METAR LFQB 120000Z AUTO 30003KT CAVOK 07/05 Q1020
01:30
V
8 °C 10 km+ - 330° 330° 3 kt METAR LFQB 112330Z AUTO 33003KT CAVOK 08/07 Q1020
01:00
V
8 °C 10 km+ - 320° 320° 3 kt METAR LFQB 112300Z AUTO 32003KT CAVOK 08/07 Q1020
00:30
V
8 °C 10 km+ - 320° 320° 5 kt METAR LFQB 112230Z AUTO 32005KT CAVOK 08/07 Q1020
00:00
V
9 °C 10 km+ - 320° 320° 5 kt METAR LFQB 112200Z AUTO 32005KT CAVOK 09/07 Q1020

11 czerwca 2024

Czas Kod Pogoda Temp. Widoczność Sufit Wiatr METAR/SPECI
23:30
V
10 °C 10 km+ - 310° 310° 5 kt METAR LFQB 112130Z AUTO 31005KT CAVOK 10/08 Q1020
23:00
V
11 °C 10 km+ - 310° 310° 6 kt METAR LFQB 112100Z AUTO 31006KT CAVOK 11/09 Q1019
22:30
V
12 °C 10 km+ - 300° 300° 3 kt METAR LFQB 112030Z AUTO 30003KT CAVOK 12/10 Q1019
22:00
V
12 °C 10 km+ - 290° 290° 3 kt METAR LFQB 112000Z AUTO 29003KT CAVOK 12/10 Q1019
21:30
V
13 °C 10 km+ - 300° 300° 5 kt METAR LFQB 111930Z AUTO 30005KT CAVOK 13/10 Q1018
21:00
V
14 °C 10 km+ - 310° 310° 5 kt METAR LFQB 111900Z AUTO 31005KT CAVOK 14/10 Q1018
20:30
V
14 °C 10 km+ - 320° 320° 5 kt METAR LFQB 111830Z AUTO 32005KT CAVOK 14/09 Q1018
20:00
V
14 °C 10 km+ - 330° 330° 4 kt METAR LFQB 111800Z AUTO 33004KT CAVOK 14/08 Q1018
19:30
V
14 °C 10 km+ - 300° 300° 6 kt METAR LFQB 111730Z AUTO 30006KT CAVOK 14/08 Q1018
19:00
V
15 °C 10 km+ - 300° 300° 10 kt METAR LFQB 111700Z AUTO 30010KT 9999 //////TCU 15/09 Q1018
18:30
V
16 °C 10 km+ - 360° 360° 9 kt METAR LFQB 111630Z AUTO 36009KT 340V040 9999 ///CB 16/07 Q1018
18:00
V
16 °C 10 km+ - 010° 010° 10 kt METAR LFQB 111600Z AUTO 01010KT 340V050 9999 ///CB 16/08 Q1017
17:30
V
15 °C 10 km+ 8.800 ft 360° 360° 8 kt METAR LFQB 111530Z AUTO 36008KT 9999 FEW032 SCT070 OVC088 15/09 Q1018
17:00
V
15 °C 10 km+ - 340° 340° 17 kt METAR LFQB 111500Z AUTO 34017KT 9999 ///CB 15/08 Q1018
16:30
V
19 °C 10 km+ - 300° 300° 4 kt METAR LFQB 111430Z AUTO 30004KT 250V060 9999 //////TCU 19/05 Q1017
16:00
V
19 °C 10 km+ - 300° 300° 5 kt METAR LFQB 111400Z AUTO 30005KT 240V020 9999 //////TCU 19/04 Q1017
15:30
V
18 °C 10 km+ - 350° 350° 4 kt METAR LFQB 111330Z AUTO 35004KT 290V100 CAVOK 18/05 Q1017
15:00
V
18 °C 10 km+ - 330° 330° 5 kt METAR LFQB 111300Z AUTO 33005KT 280V040 CAVOK 18/05 Q1017
14:30
V
18 °C 10 km+ - 320° 320° 3 kt METAR LFQB 111230Z AUTO 32003KT 200V010 CAVOK 18/06 Q1017
14:00
V
17 °C 10 km+ 7.600 ft 330° 330° 5 kt METAR LFQB 111200Z AUTO 33005KT 290V020 9999 SCT048 BKN076 BKN088 17/05 Q1017
13:30
V
17 °C 10 km+ 8.800 ft 330° 330° 6 kt METAR LFQB 111130Z AUTO 33006KT 270V070 9999 FEW048 SCT070 BKN088 17/05 Q1017
13:00
V
17 °C 10 km+ - 250° 250° 3 kt METAR LFQB 111100Z AUTO 25003KT 180V340 9999 FEW043 17/06 Q1017
12:30
V
15 °C 10 km+ 4.100 ft 350° 350° 6 kt METAR LFQB 111030Z AUTO 35006KT 320V040 9999 BKN041 BKN049 BKN086 15/06 Q1018
12:00
V
16 °C 10 km+ 4.000 ft Var Var 4 kt METAR LFQB 111000Z AUTO VRB04KT 9999 BKN040 BKN049 16/06 Q1018
11:30
V
15 °C 10 km+ 3.500 ft 310° 310° 6 kt METAR LFQB 110930Z AUTO 31006KT 280V020 9999 BKN035 BKN048 BKN054 15/07 Q1018
11:00
V
16 °C 10 km+ 3.200 ft Var Var 3 kt METAR LFQB 110900Z AUTO VRB03KT 9999 BKN032 16/07 Q1018
10:30
V
14 °C 10 km+ - 360° 360° 4 kt METAR LFQB 110830Z AUTO 36004KT 310V050 9999 FEW024 14/07 Q1018
10:00
V
14 °C 10 km+ - 030° 030° 4 kt METAR LFQB 110800Z AUTO 03004KT 280V090 9999 SCT020/// SCT025/// 14/08 Q1018
09:30
V
13 °C 10 km+ - 080° 080° 4 kt METAR LFQB 110730Z AUTO 08004KT 020V130 CAVOK 13/08 Q1018
09:00
V
12 °C 10 km+ - Var Var 2 kt METAR LFQB 110700Z AUTO VRB02KT CAVOK 12/08 Q1018
08:30
V
11 °C 10 km+ - Var Var 1 kt METAR LFQB 110630Z AUTO VRB01KT CAVOK 11/08 Q1017
08:00
V
9 °C 10 km+ - 320° 320° 3 kt METAR LFQB 110600Z AUTO 32003KT CAVOK 09/08 Q1017
07:30
V
9 °C 10 km+ - Var Var 2 kt METAR LFQB 110530Z AUTO VRB02KT CAVOK 09/07 Q1017
07:00
V
7 °C 10 km+ - 350° 350° 2 kt METAR LFQB 110500Z AUTO 35002KT CAVOK 07/06 Q1017
06:30
V
6 °C 10 km+ - Var Var 1 kt METAR LFQB 110430Z AUTO VRB01KT CAVOK 06/05 Q1016
06:00
V
5 °C 10 km+ - 320° 320° 3 kt METAR LFQB 110400Z AUTO 32003KT CAVOK 05/05 Q1016
05:30
V
6 °C 10 km+ - 320° 320° 6 kt METAR LFQB 110330Z AUTO 32006KT CAVOK 06/05 Q1016
05:00
V
6 °C 10 km+ - 310° 310° 4 kt METAR LFQB 110300Z AUTO 31004KT CAVOK 06/05 Q1016
04:30
V
5 °C 10 km+ - 320° 320° 6 kt METAR LFQB 110230Z AUTO 32006KT CAVOK 05/05 Q1016
04:00
V
5 °C 10 km+ - 320° 320° 6 kt METAR LFQB 110200Z AUTO 32006KT CAVOK 05/04 Q1016
03:30
V
7 °C 10 km+ - 320° 320° 5 kt METAR LFQB 110130Z AUTO 32005KT CAVOK 07/05 Q1016
03:00
V
6 °C 10 km+ - 300° 300° 5 kt METAR LFQB 110100Z AUTO 30005KT CAVOK 06/05 Q1016
02:30
V
7 °C 10 km+ - 320° 320° 3 kt METAR LFQB 110030Z AUTO 32003KT CAVOK 07/05 Q1016
02:00
V
7 °C 10 km+ - 300° 300° 4 kt METAR LFQB 110000Z AUTO 30004KT CAVOK 07/06 Q1016
01:30
V
7 °C 10 km+ - 290° 290° 3 kt METAR LFQB 102330Z AUTO 29003KT CAVOK 07/07 Q1016
01:00
V
7 °C 10 km+ - 360° 360° 0 kt METAR LFQB 102300Z AUTO 00000KT CAVOK 07/07 Q1016
00:30
V
7 °C 10 km+ - 290° 290° 5 kt METAR LFQB 102230Z AUTO 29005KT CAVOK 07/06 Q1016
00:00
V
7 °C 10 km+ - 290° 290° 6 kt METAR LFQB 102200Z AUTO 29006KT CAVOK 07/06 Q1015

10 czerwca 2024

Czas Kod Pogoda Temp. Widoczność Sufit Wiatr METAR/SPECI
23:30
V
7 °C 10 km+ - 300° 300° 6 kt METAR LFQB 102130Z AUTO 30006KT CAVOK 07/06 Q1015
23:00
V
9 °C 10 km+ - 300° 300° 5 kt METAR LFQB 102100Z AUTO 30005KT CAVOK 09/07 Q1015
22:30
V
11 °C 10 km+ - 340° 340° 5 kt METAR LFQB 102030Z AUTO 34005KT CAVOK 11/08 Q1015
22:00
V
13 °C 10 km+ - 360° 360° 6 kt METAR LFQB 102000Z AUTO 36006KT CAVOK 13/08 Q1014
21:30
V
13 °C 10 km+ - 330° 330° 6 kt METAR LFQB 101930Z AUTO 33006KT CAVOK 13/10 Q1014
21:00
V
14 °C 10 km+ 10.000 ft 300° 300° 8 kt METAR LFQB 101900Z AUTO 30008KT 9999 FEW025 OVC100 14/12 Q1013
20:30
V
14 °C 10 km+ 9.400 ft 290° 290° 7 kt METAR LFQB 101830Z AUTO 29007KT 9999 FEW030 OVC094 14/12 Q1013
20:00
V
14 °C 10 km+ - 280° 280° 8 kt METAR LFQB 101800Z AUTO 28008KT 9999 ///TCU 14/13 Q1012
19:30
V
14 °C 10 km+ 7.800 ft 290° 290° 8 kt METAR LFQB 101730Z AUTO 29008KT 9999 FEW044 BKN078 OVC092 14/12 Q1012
19:00
V
14 °C 10 km+ 6.800 ft 300° 300° 10 kt METAR LFQB 101700Z AUTO 30010KT 9999 -RA FEW012 SCT056 OVC068 14/12 Q1012
18:30
V
14 °C 9 km 5.400 ft 290° 290° 11 kt METAR LFQB 101630Z AUTO 29011KT 9000 -RA FEW031/// SCT044/// BKN054/// ///TCU 14/13 Q1012
18:00
V
14 °C 10 km+ 5.800 ft 280° 280° 12 kt METAR LFQB 101600Z AUTO 28012KT 9999 -RA FEW037/// OVC058/// ///TCU 14/12 Q1011
17:30
V
15 °C 9 km 3.300 ft 300° 300° 16 - 26 kt METAR LFQB 101530Z AUTO 30016G26KT 280V340 9000 -RA FEW028/// BKN033/// BKN039/// ///CB 15/12 Q1011
17:00
V
18 °C 10 km+ 4.300 ft 270° 270° 13 kt METAR LFQB 101500Z AUTO 27013KT 9999 BKN043/// BKN050/// BKN066/// //////CB 18/10 Q1010
16:30
V
20 °C 10 km+ 4.200 ft 260° 260° 14 kt METAR LFQB 101430Z AUTO 26014KT 230V300 9999 BKN042 BKN048 BKN058 20/10 Q1010
16:00
V
20 °C 10 km+ 4.700 ft 270° 270° 18 kt METAR LFQB 101400Z AUTO 27018KT 9999 FEW039 BKN047 BKN056 20/10 Q1010
15:30
V
19 °C 10 km+ 4.700 ft 260° 260° 16 kt METAR LFQB 101330Z AUTO 26016KT 230V290 9999 BKN047 OVC054 19/10 Q1010
15:00
V
18 °C 10 km+ 4.900 ft 260° 260° 16 kt METAR LFQB 101300Z AUTO 26016KT 9999 SCT042 BKN049 BKN058 18/10 Q1011
14:30
V
18 °C 10 km+ 4.500 ft 270° 270° 19 kt METAR LFQB 101230Z AUTO 27019KT 9999 FEW035 OVC045 18/10 Q1011
14:00
V
18 °C 10 km+ 3.900 ft 270° 270° 17 kt METAR LFQB 101200Z AUTO 27017KT 9999 BKN039 BKN046 OVC052 18/10 Q1011
13:30
V
18 °C 10 km+ 3.900 ft 270° 270° 15 kt METAR LFQB 101130Z AUTO 27015KT 9999 BKN039 OVC094 18/10 Q1011
13:00
V
18 °C 10 km+ 3.800 ft 270° 270° 14 kt METAR LFQB 101100Z AUTO 27014KT 9999 BKN038 BKN094 18/10 Q1011
12:30
V
18 °C 10 km+ 3.600 ft 260° 260° 12 kt METAR LFQB 101030Z AUTO 26012KT 230V290 9999 BKN036 BKN044 18/10 Q1011
12:00
V
19 °C 10 km+ 3.700 ft 250° 250° 13 kt METAR LFQB 101000Z AUTO 25013KT 220V280 9999 BKN037 19/10 Q1011
11:30
V
17 °C 10 km+ - 250° 250° 12 kt METAR LFQB 100930Z AUTO 25012KT 220V280 9999 SCT036 17/08 Q1011
11:00
V
17 °C 10 km+ - 270° 270° 12 kt METAR LFQB 100900Z AUTO 27012KT 230V290 CAVOK 17/08 Q1011
10:30
V
16 °C 10 km+ - 260° 260° 11 kt METAR LFQB 100830Z AUTO 26011KT 220V300 9999 FEW035 16/08 Q1011
10:00
V
16 °C 10 km+ - 260° 260° 11 kt METAR LFQB 100800Z AUTO 26011KT 220V290 9999 FEW034 16/09 Q1011
09:30
V
16 °C 10 km+ - 260° 260° 10 kt METAR LFQB 100730Z AUTO 26010KT CAVOK 16/08 Q1011
09:00
V
15 °C 10 km+ - 260° 260° 8 kt METAR LFQB 100700Z AUTO 26008KT 230V290 CAVOK 15/08 Q1011
08:30
V
14 °C 10 km+ - 250° 250° 7 kt METAR LFQB 100630Z AUTO 25007KT CAVOK 14/08 Q1011
08:00
V
14 °C 10 km+ - Var Var 2 kt METAR LFQB 100600Z AUTO VRB02KT CAVOK 14/09 Q1011
Zgłoś zmianę